Time;durP1;ratioP1;P1;durP2;ratioP2;P2;SDS_P1;SDS_P2;PMS_P1;PMS_P2;Temp;Humidity;BMP_temperature;BMP_pressure;BME280_temperature;BME280_humidity;BME280_pressure;Samples;Min_cycle;Max_cycle;Signal;HPM_P1;HPM_P2
2021/06/10 00:00:34;;;;;;;9.82;5.72;;;563.70;1433.60;;;;;;5096279;28;20027;-62
2021/06/10 00:03:00;;;;;;;8.95;6.28;;;563.80;1433.60;;;;;;5096004;28;20083;-62
2021/06/10 00:05:26;;;;;;;10.43;6.13;;;563.70;1433.60;;;;;;5096173;28;20038;-63
2021/06/10 00:07:53;;;;;;;5.85;4.93;;;563.70;1433.60;;;;;;5096276;28;20351;-65
2021/06/10 00:10:21;;;;;;;9.57;5.35;;;563.70;1433.60;;;;;;5095691;28;20027;-64
2021/06/10 00:12:47;;;;;;;9.88;5.55;;;563.70;1433.60;;;;;;5093661;28;20020;-63
2021/06/10 00:15:17;;;;;;;9.35;5.50;;;563.70;1433.60;;;;;;5094725;28;20469;-63
2021/06/10 00:17:43;;;;;;;7.60;5.88;;;563.70;1433.60;;;;;;5095897;28;20020;-62
2021/06/10 00:20:11;;;;;;;10.30;6.07;;;563.70;1433.60;;;;;;5095683;28;20473;-63
2021/06/10 00:22:38;;;;;;;9.40;5.28;;;563.70;1433.60;;;;;;5095702;28;20386;-64
2021/06/10 00:25:05;;;;;;;11.13;5.68;;;563.70;1433.60;;;;;;5094820;28;20048;-62
2021/06/10 00:27:31;;;;;;;11.07;6.07;;;563.60;1433.60;;;;;;5094972;28;20076;-63
2021/06/10 00:29:56;;;;;;;18.10;6.40;;;563.60;1459.20;;;;;;5095501;28;20091;-62
2021/06/10 00:32:22;;;;;;;12.10;5.53;;;563.60;1459.20;;;;;;5095415;28;20028;-63
2021/06/10 00:34:48;;;;;;;6.82;5.45;;;563.60;1459.20;;;;;;5095070;28;20393;-62
2021/06/10 00:37:14;;;;;;;10.65;5.97;;;563.60;1459.20;;;;;;5095338;28;20027;-63
2021/06/10 00:39:41;;;;;;;10.07;6.25;;;563.50;1459.20;;;;;;5095317;28;20035;-62
2021/06/10 00:42:08;;;;;;;6.55;5.80;;;563.60;1459.20;;;;;;5095408;28;20058;-62
2021/06/10 00:44:33;;;;;;;7.03;5.70;;;563.40;1459.20;;;;;;5095187;28;20052;-64
2021/06/10 00:46:59;;;;;;;6.05;5.45;;;563.40;1459.20;;;;;;5095100;28;20055;-62
2021/06/10 00:49:25;;;;;;;11.40;6.55;;;563.40;1459.20;;;;;;5094899;28;20034;-62
2021/06/10 00:51:52;;;;;;;8.05;6.03;;;563.40;1484.80;;;;;;5094972;28;20061;-63
2021/06/10 00:54:18;;;;;;;6.97;6.30;;;563.40;1484.80;;;;;;5095347;28;20070;-63
2021/06/10 00:56:44;;;;;;;9.68;5.93;;;563.30;1484.80;;;;;;5094873;28;20408;-64
2021/06/10 00:59:10;;;;;;;9.20;6.35;;;563.40;1484.80;;;;;;5094744;28;20043;-62
2021/06/10 01:01:36;;;;;;;7.65;5.63;;;563.30;1484.80;;;;;;5091896;28;20016;-64
2021/06/10 01:04:02;;;;;;;9.13;6.00;;;563.30;1484.80;;;;;;5095152;28;20020;-63
2021/06/10 01:07:11;;;;;;;7.18;5.60;;;563.30;1484.80;;;;;;5094336;28;20027;-62
2021/06/10 01:09:52;;;;;;;21.10;6.85;;;563.30;1484.80;;;;;;5010279;28;20030;-66
2021/06/10 01:12:43;;;;;;;16.60;6.78;;;563.30;1484.80;;;;;;5007109;28;20030;-60
2021/06/10 01:15:13;;;;;;;14.88;6.90;;;563.30;1484.80;;;;;;5003903;28;20044;-60
2021/06/10 01:17:46;;;;;;;15.45;6.03;;;563.20;1484.80;;;;;;5003713;28;20022;-62
2021/06/10 01:20:15;;;;;;;13.05;6.55;;;563.20;1484.80;;;;;;5009755;28;20049;-63
2021/06/10 01:22:56;;;;;;;8.75;5.30;;;563.20;1484.80;;;;;;5013102;28;20428;-61
2021/06/10 01:25:34;;;;;;;7.78;5.45;;;563.20;1484.80;;;;;;5012800;28;20146;-62
2021/06/10 01:28:35;;;;;;;8.90;6.40;;;563.20;1484.80;;;;;;5013082;28;20108;-62
2021/06/10 01:31:07;;;;;;;7.38;5.80;;;563.20;1484.80;;;;;;5012986;28;20033;-61
2021/06/10 01:33:42;;;;;;;8.65;5.60;;;563.20;1484.80;;;;;;5012883;28;20105;-62
2021/06/10 01:36:20;;;;;;;10.35;5.75;;;563.20;1484.80;;;;;;5013015;28;20606;-62
2021/06/10 01:38:50;;;;;;;13.63;6.30;;;563.20;1484.80;;;;;;5013043;28;20550;-62
2021/06/10 01:41:18;;;;;;;7.20;5.68;;;563.20;1484.80;;;;;;5066473;28;20037;-62
2021/06/10 01:43:45;;;;;;;7.68;5.57;;;563.20;1484.80;;;;;;5074623;28;20163;-62
2021/06/10 01:46:12;;;;;;;6.45;5.78;;;563.20;1484.80;;;;;;5074268;28;20374;-61
2021/06/10 01:48:40;;;;;;;9.68;4.93;;;563.20;1484.80;;;;;;5074271;28;20490;-63
2021/06/10 01:51:08;;;;;;;11.40;5.80;;;563.20;1484.80;;;;;;5074328;28;20029;-62
2021/06/10 01:53:38;;;;;;;7.30;5.47;;;563.20;1484.80;;;;;;5074018;28;20107;-62
2021/06/10 01:56:05;;;;;;;8.43;5.03;;;563.20;1484.80;;;;;;5074185;28;20021;-61
2021/06/10 01:58:31;;;;;;;9.80;5.32;;;563.20;1484.80;;;;;;5073928;28;20036;-62
2021/06/10 02:01:00;;;;;;;6.93;5.25;;;538.50;1459.20;;;;;;5074255;28;20025;-61
2021/06/10 02:03:28;;;;;;;7.60;5.38;;;538.50;1433.60;;;;;;5074164;28;20036;-62
2021/06/10 02:05:55;;;;;;;7.50;5.50;;;538.50;1433.60;;;;;;5073829;28;20374;-63
2021/06/10 02:08:21;;;;;;;6.72;4.90;;;538.50;1459.20;;;;;;5074585;28;20512;-62
2021/06/10 02:10:53;;;;;;;8.18;5.28;;;538.40;1433.60;;;;;;5073961;28;20028;-62
2021/06/10 02:13:22;;;;;;;8.88;5.30;;;538.40;1433.60;;;;;;5091529;28;20063;-60
2021/06/10 02:15:50;;;;;;;7.32;4.82;;;538.30;1459.20;;;;;;5092666;28;20466;-61
2021/06/10 02:18:19;;;;;;;8.63;5.63;;;538.30;1433.60;;;;;;5094034;28;20032;-62
2021/06/10 02:20:44;;;;;;;5.95;4.93;;;538.40;1433.60;;;;;;5093400;28;20362;-62
2021/06/10 02:23:10;;;;;;;10.13;5.70;;;538.30;1433.60;;;;;;5094013;28;20035;-62
2021/06/10 02:25:40;;;;;;;10.05;5.80;;;538.30;1433.60;;;;;;5093812;28;20115;-61
2021/06/10 02:28:06;;;;;;;11.55;5.90;;;538.30;1433.60;;;;;;5093991;28;20028;-61
2021/06/10 02:30:33;;;;;;;8.15;5.13;;;538.20;1433.60;;;;;;5094096;28;20028;-62
2021/06/10 02:32:59;;;;;;;6.15;4.95;;;538.20;1433.60;;;;;;5094069;28;20032;-62
2021/06/10 02:35:25;;;;;;;8.02;6.30;;;538.30;1459.20;;;;;;5093899;28;20146;-62
2021/06/10 02:37:58;;;;;;;12.43;5.95;;;538.10;1459.20;;;;;;5094254;28;20039;-61
2021/06/10 02:40:32;;;;;;;9.88;6.15;;;538.20;1459.20;;;;;;5093757;28;20028;-61
2021/06/10 02:43:00;;;;;;;9.65;6.60;;;538.10;1459.20;;;;;;5093976;28;20028;-61
2021/06/10 02:45:26;;;;;;;12.45;6.45;;;538.10;1459.20;;;;;;5093793;28;20044;-61
2021/06/10 02:47:53;;;;;;;9.40;6.22;;;538.10;1459.20;;;;;;5093687;28;20024;-62
2021/06/10 02:50:20;;;;;;;7.05;5.82;;;538.10;1459.20;;;;;;5093959;28;20016;-62
2021/06/10 02:52:49;;;;;;;8.73;6.05;;;538.10;1459.20;;;;;;5093377;28;20024;-61
2021/06/10 02:55:18;;;;;;;8.45;6.05;;;538.10;1459.20;;;;;;5093190;28;20074;-61
2021/06/10 02:57:50;;;;;;;10.05;6.10;;;538.10;1459.20;;;;;;5093106;28;20047;-62
2021/06/10 03:00:17;;;;;;;10.88;5.93;;;538.10;1459.20;;;;;;5090327;28;20067;-62
2021/06/10 03:02:44;;;;;;;11.00;6.18;;;538.00;1459.20;;;;;;5092931;28;20115;-61
2021/06/10 03:05:12;;;;;;;11.13;6.70;;;538.00;1459.20;;;;;;5094000;28;20028;-61
2021/06/10 03:07:38;;;;;;;11.70;6.63;;;538.00;1459.20;;;;;;5093657;28;20040;-62
2021/06/10 03:10:09;;;;;;;8.43;6.13;;;537.90;1459.20;;;;;;5093497;28;20509;-61
2021/06/10 03:12:37;;;;;;;6.70;5.90;;;537.90;1484.80;;;;;;5093088;28;20067;-61
2021/06/10 03:15:05;;;;;;;18.60;7.53;;;538.00;1459.20;;;;;;5093361;28;20044;-62
2021/06/10 03:17:31;;;;;;;15.45;7.20;;;537.90;1484.80;;;;;;5092837;28;20024;-64
2021/06/10 03:19:56;;;;;;;28.23;7.22;;;537.90;1484.80;;;;;;5093071;28;20044;-62
2021/06/10 03:22:22;;;;;;;38.28;8.50;;;537.90;1484.80;;;;;;5092831;28;20030;-61
2021/06/10 03:24:49;;;;;;;47.47;9.90;;;538.00;1510.40;;;;;;5093266;28;20575;-61
2021/06/10 03:27:17;;;;;;;32.20;8.32;;;538.00;1484.80;;;;;;5093502;28;20481;-61
2021/06/10 03:29:42;;;;;;;22.55;7.38;;;537.90;1484.80;;;;;;5093501;28;20534;-61
2021/06/10 03:32:09;;;;;;;19.60;7.57;;;538.00;1484.80;;;;;;5096781;28;20023;-62
2021/06/10 03:34:36;;;;;;;16.15;6.65;;;538.00;1484.80;;;;;;5097074;28;20069;-61
2021/06/10 03:37:03;;;;;;;14.13;6.72;;;537.90;1484.80;;;;;;5097340;28;20026;-61
2021/06/10 03:39:30;;;;;;;12.15;5.65;;;537.90;1484.80;;;;;;5097076;28;20043;-62
2021/06/10 03:41:57;;;;;;;12.88;6.20;;;538.00;1484.80;;;;;;5097125;28;20020;-62
2021/06/10 03:44:23;;;;;;;12.25;5.95;;;537.90;1484.80;;;;;;5097083;28;20070;-61
2021/06/10 03:46:49;;;;;;;8.88;5.18;;;537.90;1484.80;;;;;;5097101;28;20480;-61
2021/06/10 03:49:15;;;;;;;11.15;6.03;;;538.00;1484.80;;;;;;5096786;28;20119;-62
2021/06/10 03:51:41;;;;;;;9.32;5.78;;;538.00;1484.80;;;;;;5096250;28;20355;-62
2021/06/10 03:54:07;;;;;;;8.98;6.00;;;538.00;1484.80;;;;;;5097025;28;20078;-62
2021/06/10 03:56:34;;;;;;;11.35;5.45;;;538.00;1484.80;;;;;;5096745;28;20439;-62
2021/06/10 03:59:00;;;;;;;8.68;5.45;;;538.00;1484.80;;;;;;5096798;28;20032;-62
2021/06/10 04:01:26;;;;;;;9.27;5.90;;;538.00;1484.80;;;;;;5097059;28;20543;-62
2021/06/10 04:03:52;;;;;;;12.05;5.50;;;538.00;1484.80;;;;;;5096731;28;20028;-62
2021/06/10 04:06:24;;;;;;;10.68;5.50;;;538.10;1459.20;;;;;;5096715;28;20039;-62
2021/06/10 04:08:50;;;;;;;10.48;5.20;;;538.10;1459.20;;;;;;5096615;28;20035;-62
2021/06/10 04:11:15;;;;;;;6.72;5.20;;;538.10;1459.20;;;;;;5096467;28;20032;-61
2021/06/10 04:13:41;;;;;;;6.15;5.55;;;538.20;1459.20;;;;;;5097006;28;20035;-62
2021/06/10 04:16:07;;;;;;;9.73;5.30;;;538.20;1459.20;;;;;;5096720;28;20361;-62
2021/06/10 04:18:33;;;;;;;7.03;5.38;;;538.20;1459.20;;;;;;5096560;28;20032;-62
2021/06/10 04:20:58;;;;;;;10.40;5.60;;;538.20;1459.20;;;;;;5096173;28;20016;-61
2021/06/10 04:23:24;;;;;;;6.18;4.90;;;538.30;1459.20;;;;;;5096175;28;20127;-61
2021/06/10 04:25:50;;;;;;;11.50;5.68;;;538.40;1459.20;;;;;;5096223;28;20028;-62
2021/06/10 04:28:15;;;;;;;8.52;5.63;;;538.40;1459.20;;;;;;5096084;28;20046;-62
2021/06/10 04:30:41;;;;;;;9.70;5.57;;;538.50;1459.20;;;;;;5096268;28;20028;-62
2021/06/10 04:33:07;;;;;;;10.48;5.32;;;538.50;1433.60;;;;;;5096186;28;20016;-62
2021/06/10 04:35:33;;;;;;;11.10;5.05;;;563.20;1459.20;;;;;;5096181;28;20028;-62
2021/06/10 04:37:58;;;;;;;7.18;5.22;;;563.20;1459.20;;;;;;5096155;28;20103;-62
2021/06/10 04:40:24;;;;;;;8.05;5.60;;;563.30;1459.20;;;;;;5095952;28;20039;-62
2021/06/10 04:42:50;;;;;;;8.65;5.22;;;563.40;1459.20;;;;;;5095358;28;20027;-62
2021/06/10 04:45:15;;;;;;;7.90;5.00;;;563.40;1459.20;;;;;;5096618;28;20031;-62
2021/06/10 04:47:41;;;;;;;6.88;5.05;;;563.50;1459.20;;;;;;5095577;28;20020;-62
2021/06/10 04:50:08;;;;;;;7.88;5.45;;;563.60;1459.20;;;;;;5095736;28;20028;-62
2021/06/10 04:52:33;;;;;;;9.35;5.32;;;563.60;1459.20;;;;;;5095517;28;20031;-62
2021/06/10 04:54:59;;;;;;;13.07;5.95;;;563.70;1459.20;;;;;;5095715;28;20027;-62
2021/06/10 04:57:25;;;;;;;6.72;5.18;;;563.70;1433.60;;;;;;5095798;28;20031;-62
2021/06/10 04:59:51;;;;;;;9.15;4.90;;;563.90;1433.60;;;;;;5095611;28;20039;-62
2021/06/10 05:02:17;;;;;;;11.55;5.30;;;564.00;1433.60;;;;;;5095416;28;20020;-62
2021/06/10 05:04:42;;;;;;;9.95;5.30;;;564.10;1433.60;;;;;;5095469;28;20020;-62
2021/06/10 05:07:11;;;;;;;8.98;4.80;;;588.80;1433.60;;;;;;5095552;28;20458;-62
2021/06/10 05:09:36;;;;;;;8.00;4.75;;;588.90;1408.00;;;;;;5095673;28;20346;-62
2021/06/10 05:12:03;;;;;;;10.45;4.63;;;589.00;1408.00;;;;;;5095228;28;20031;-62
2021/06/10 05:14:30;;;;;;;7.57;4.75;;;589.20;1382.40;;;;;;5095234;28;20028;-62
2021/06/10 05:16:56;;;;;;;11.63;5.47;;;589.30;1382.40;;;;;;5095354;28;20034;-62
2021/06/10 05:19:22;;;;;;;7.03;4.53;;;589.40;1382.40;;;;;;5095157;28;20123;-62
2021/06/10 05:21:47;;;;;;;9.18;5.28;;;589.50;1382.40;;;;;;5095270;28;20429;-62
2021/06/10 05:24:15;;;;;;;6.47;4.40;;;589.50;1356.80;;;;;;5095012;28;20397;-62
2021/06/10 05:26:41;;;;;;;8.35;4.40;;;589.60;1356.80;;;;;;5094931;28;20024;-62
2021/06/10 05:29:07;;;;;;;8.40;4.53;;;614.40;1356.80;;;;;;5094911;28;20024;-62
2021/06/10 05:31:33;;;;;;;9.63;4.38;;;614.40;1331.20;;;;;;5094830;28;20024;-62
2021/06/10 05:33:58;;;;;;;11.05;4.53;;;614.50;1331.20;;;;;;5094957;28;20047;-62
2021/06/10 05:36:24;;;;;;;6.80;3.80;;;614.60;1331.20;;;;;;5094983;28;20102;-63
2021/06/10 05:38:50;;;;;;;8.20;4.05;;;614.80;1305.60;;;;;;5094659;28;20032;-62
2021/06/10 05:41:16;;;;;;;6.70;4.22;;;614.90;1305.60;;;;;;5094874;28;20020;-63
2021/06/10 05:43:41;;;;;;;8.93;4.10;;;614.90;1305.60;;;;;;5093401;28;20111;-63
2021/06/10 05:46:07;;;;;;;5.78;3.60;;;615.00;1280.00;;;;;;5095096;28;20022;-63
2021/06/10 05:48:33;;;;;;;6.47;4.03;;;615.10;1280.00;;;;;;5094683;28;20127;-63
2021/06/10 05:50:58;;;;;;;10.07;4.03;;;615.20;1280.00;;;;;;5094535;28;20039;-63
2021/06/10 05:53:24;;;;;;;7.18;3.65;;;615.20;1254.40;;;;;;5093708;28;20026;-63
2021/06/10 05:55:51;;;;;;;6.60;3.70;;;640.00;1254.40;;;;;;5093893;28;20024;-63
2021/06/10 05:58:17;;;;;;;8.60;3.25;;;640.00;1228.80;;;;;;5094366;28;20039;-63
2021/06/10 06:00:43;;;;;;;8.50;3.75;;;640.10;1228.80;;;;;;5094479;28;20020;-63
2021/06/10 06:03:09;;;;;;;5.72;3.55;;;640.30;1228.80;;;;;;5094404;28;20351;-63
2021/06/10 06:05:35;;;;;;;10.15;3.83;;;640.30;1203.20;;;;;;5094333;28;20024;-63
2021/06/10 06:08:01;;;;;;;10.45;3.78;;;640.40;1203.20;;;;;;5094394;28;20028;-63
2021/06/10 06:10:29;;;;;;;8.70;3.60;;;640.50;1203.20;;;;;;5094344;28;20470;-63
2021/06/10 06:12:57;;;;;;;7.22;4.10;;;640.50;1203.20;;;;;;5094314;28;20028;-63
2021/06/10 06:15:23;;;;;;;6.75;3.05;;;640.60;1203.20;;;;;;5094454;28;20361;-64
2021/06/10 06:17:49;;;;;;;7.70;3.30;;;640.60;1203.20;;;;;;5094767;28;20099;-63
2021/06/10 06:20:15;;;;;;;9.82;3.85;;;640.70;1203.20;;;;;;5094094;28;20036;-63
2021/06/10 06:22:43;;;;;;;8.82;3.95;;;640.70;1203.20;;;;;;5094147;28;20059;-64
2021/06/10 06:25:11;;;;;;;7.15;3.92;;;640.70;1177.60;;;;;;5093798;28;20055;-63
2021/06/10 06:27:37;;;;;;;6.55;3.90;;;640.70;1203.20;;;;;;5093978;28;20462;-63
2021/06/10 06:30:06;;;;;;;4.85;3.67;;;640.80;1177.60;;;;;;5094117;28;20028;-64
2021/06/10 06:32:33;;;;;;;9.48;3.65;;;640.80;1177.60;;;;;;5094156;28;20020;-64
2021/06/10 06:34:59;;;;;;;8.50;3.65;;;640.90;1177.60;;;;;;5093844;28;20024;-64
2021/06/10 06:37:24;;;;;;;9.93;3.40;;;665.70;1177.60;;;;;;5094068;28;20077;-63
2021/06/10 06:39:50;;;;;;;7.68;3.65;;;665.90;1177.60;;;;;;5093862;28;20077;-64
2021/06/10 06:42:16;;;;;;;6.53;3.50;;;666.10;1152.00;;;;;;5094003;28;20022;-64
2021/06/10 06:44:42;;;;;;;5.75;3.58;;;666.40;1152.00;;;;;;5093905;28;20024;-64
2021/06/10 06:47:08;;;;;;;10.35;4.60;;;691.20;1152.00;;;;;;5093820;28;20024;-64
2021/06/10 06:49:35;;;;;;;5.20;3.70;;;691.50;1126.40;;;;;;5093793;28;20035;-64
2021/06/10 06:52:00;;;;;;;7.40;3.85;;;691.90;1100.80;;;;;;5093798;28;20386;-64
2021/06/10 06:54:26;;;;;;;5.20;3.58;;;692.00;1100.80;;;;;;5093561;28;20024;-64
2021/06/10 06:56:52;;;;;;;14.75;3.83;;;716.80;1100.80;;;;;;5093742;28;20024;-64
2021/06/10 06:59:17;;;;;;;6.63;3.83;;;716.90;1100.80;;;;;;5093440;28;20059;-64
2021/06/10 07:01:43;;;;;;;8.07;3.17;;;717.00;1075.20;;;;;;5094299;28;20059;-64
2021/06/10 07:04:09;;;;;;;5.90;3.47;;;717.20;1075.20;;;;;;5094210;28;20310;-64
2021/06/10 07:06:35;;;;;;;5.35;3.50;;;717.30;1049.60;;;;;;5096458;28;20431;-64
2021/06/10 07:09:00;;;;;;;6.90;4.28;;;717.30;1049.60;;;;;;5098208;28;20028;-64
2021/06/10 07:11:26;;;;;;;12.98;4.05;;;717.40;1049.60;;;;;;5097471;28;20020;-64
2021/06/10 07:13:52;;;;;;;5.22;3.15;;;717.40;1049.60;;;;;;5097598;28;20024;-64
2021/06/10 07:16:17;;;;;;;9.75;3.67;;;717.50;1049.60;;;;;;5097738;28;20531;-64
2021/06/10 07:18:43;;;;;;;12.88;3.80;;;717.60;1049.60;;;;;;5097628;28;20028;-64
2021/06/10 07:21:09;;;;;;;13.13;3.97;;;742.50;1049.60;;;;;;5097461;28;20377;-64
2021/06/10 07:23:35;;;;;;;13.20;3.83;;;742.60;1024.00;;;;;;5097417;28;20043;-64
2021/06/10 07:26:01;;;;;;;13.07;4.07;;;742.70;1024.00;;;;;;5097693;28;20056;-64
2021/06/10 07:28:27;;;;;;;10.38;4.13;;;742.80;1024.00;;;;;;5097432;28;20052;-64
2021/06/10 07:30:53;;;;;;;11.75;4.25;;;743.00;998.40;;;;;;5097429;28;20485;-64
2021/06/10 07:33:20;;;;;;;20.38;4.03;;;743.20;998.40;;;;;;5097196;28;20347;-64
2021/06/10 07:35:46;;;;;;;6.18;3.90;;;768.10;972.80;;;;;;5097324;28;20065;-64
2021/06/10 07:38:12;;;;;;;6.00;3.72;;;768.30;972.80;;;;;;5097212;28;20028;-64
2021/06/10 07:40:40;;;;;;;14.35;3.67;;;768.50;947.20;;;;;;5096956;28;20031;-64
2021/06/10 07:43:06;;;;;;;5.82;3.28;;;768.80;947.20;;;;;;5096932;28;20021;-64
2021/06/10 07:45:32;;;;;;;15.25;3.30;;;793.60;947.20;;;;;;5097168;28;20028;-64
2021/06/10 07:47:59;;;;;;;7.95;3.70;;;793.80;947.20;;;;;;5097255;28;20024;-64
2021/06/10 07:50:25;;;;;;;9.57;3.95;;;794.10;921.60;;;;;;5097561;28;20024;-64
2021/06/10 07:52:52;;;;;;;17.02;4.40;;;794.40;921.60;;;;;;5096784;28;20140;-65
2021/06/10 07:55:19;;;;;;;8.57;3.40;;;819.30;896.00;;;;;;5096886;28;20122;-65
2021/06/10 07:57:46;;;;;;;13.48;3.90;;;819.60;870.40;;;;;;5096849;28;20020;-65
2021/06/10 08:00:12;;;;;;;11.48;3.47;;;819.80;870.40;;;;;;5096808;28;20028;-64
2021/06/10 08:02:38;;;;;;;17.23;4.57;;;820.00;870.40;;;;;;5096688;28;20020;-64
2021/06/10 08:05:04;;;;;;;16.45;3.80;;;820.10;844.80;;;;;;5096831;28;20488;-65
2021/06/10 08:07:30;;;;;;;9.25;4.00;;;819.90;844.80;;;;;;5096642;28;20031;-65
2021/06/10 08:09:58;;;;;;;8.13;3.28;;;819.80;844.80;;;;;;5096453;28;20032;-64
2021/06/10 08:12:24;;;;;;;6.93;3.70;;;819.60;844.80;;;;;;5096475;28;20020;-65
2021/06/10 08:14:53;;;;;;;7.65;3.60;;;819.40;870.40;;;;;;5096626;28;20032;-64
2021/06/10 08:17:18;;;;;;;13.70;4.47;;;819.20;870.40;;;;;;5095508;28;20024;-64
2021/06/10 08:19:44;;;;;;;10.10;3.50;;;794.30;870.40;;;;;;5096528;28;20032;-65
2021/06/10 08:22:10;;;;;;;16.20;3.92;;;794.10;896.00;;;;;;5096198;28;20021;-65
2021/06/10 08:24:36;;;;;;;10.80;3.58;;;794.10;896.00;;;;;;5095933;28;20059;-65
2021/06/10 08:27:02;;;;;;;10.07;3.55;;;793.90;896.00;;;;;;5095780;28;20028;-64
2021/06/10 08:29:29;;;;;;;8.52;3.38;;;793.80;896.00;;;;;;5096136;28;20039;-65
2021/06/10 08:31:55;;;;;;;9.45;3.28;;;793.90;870.40;;;;;;5096213;28;20091;-64
2021/06/10 08:34:24;;;;;;;10.02;3.65;;;794.00;896.00;;;;;;5096518;28;20073;-65
2021/06/10 08:36:50;;;;;;;13.80;3.72;;;794.10;896.00;;;;;;5096661;28;20023;-65
2021/06/10 08:39:16;;;;;;;11.82;3.40;;;794.30;870.40;;;;;;5095782;28;20040;-65
2021/06/10 08:41:43;;;;;;;14.73;3.83;;;819.20;844.80;;;;;;5096274;28;20024;-65
2021/06/10 08:44:09;;;;;;;16.08;3.70;;;819.60;844.80;;;;;;5096119;28;20047;-65
2021/06/10 08:46:36;;;;;;;11.60;3.05;;;819.70;844.80;;;;;;5095943;28;20072;-65
2021/06/10 08:49:04;;;;;;;11.93;3.38;;;819.70;844.80;;;;;;5095319;28;20111;-65
2021/06/10 08:51:30;;;;;;;21.83;3.33;;;819.70;819.20;;;;;;5094170;28;20028;-64
2021/06/10 08:53:57;;;;;;;11.95;3.50;;;819.60;844.80;;;;;;5093967;28;20028;-63
2021/06/10 08:56:30;;;;;;;13.82;3.60;;;819.40;844.80;;;;;;5091990;28;20071;-64
2021/06/10 08:58:57;;;;;;;11.98;3.35;;;819.20;844.80;;;;;;5092065;28;20047;-64
2021/06/10 09:01:24;;;;;;;51.45;5.35;;;819.20;844.80;;;;;;5095000;28;20381;-65
2021/06/10 09:03:50;;;;;;;30.73;4.55;;;794.40;844.80;;;;;;5094993;28;20100;-66
2021/06/10 09:06:17;;;;;;;20.65;3.70;;;794.30;844.80;;;;;;5095591;28;20481;-65
2021/06/10 09:08:49;;;;;;;10.55;3.72;;;794.30;844.80;;;;;;5095252;28;20032;-66
2021/06/10 09:11:22;;;;;;;11.77;3.55;;;794.20;844.80;;;;;;5095294;28;20076;-65
2021/06/10 09:13:48;;;;;;;13.27;3.77;;;794.20;870.40;;;;;;5095357;28;20491;-66
2021/06/10 09:16:22;;;;;;;10.52;3.33;;;794.30;870.40;;;;;;5095308;28;20075;-66
2021/06/10 09:18:52;;;;;;;8.75;3.75;;;794.50;870.40;;;;;;5095116;28;20032;-66
2021/06/10 09:21:41;;;;;;;13.32;4.65;;;819.40;844.80;;;;;;5095252;28;20024;-65
2021/06/10 09:24:27;;;;;;;22.05;4.63;;;819.70;844.80;;;;;;5094795;28;20048;-65
2021/06/10 09:27:10;;;;;;;8.90;4.38;;;819.90;844.80;;;;;;5094837;28;20027;-64
2021/06/10 09:29:45;;;;;;;19.92;4.43;;;820.00;844.80;;;;;;5093432;28;20423;-64
2021/06/10 09:32:26;;;;;;;21.83;4.32;;;820.10;844.80;;;;;;5094821;28;20533;-64
2021/06/10 09:35:01;;;;;;;14.88;3.92;;;820.00;819.20;;;;;;5095077;28;20032;-65
2021/06/10 09:37:38;;;;;;;14.00;4.38;;;820.00;844.80;;;;;;5094827;28;20021;-65
2021/06/10 09:40:15;;;;;;;21.08;4.28;;;819.90;844.80;;;;;;5094630;28;20063;-65
2021/06/10 09:42:42;;;;;;;16.17;3.70;;;819.70;844.80;;;;;;5094819;28;20070;-65
2021/06/10 09:45:12;;;;;;;8.68;3.53;;;819.70;844.80;;;;;;5094605;28;20493;-65
2021/06/10 09:47:43;;;;;;;13.68;3.88;;;819.70;844.80;;;;;;5094722;28;20496;-65
2021/06/10 09:50:16;;;;;;;12.80;4.38;;;819.70;844.80;;;;;;5094365;28;20024;-65
2021/06/10 09:52:47;;;;;;;19.58;5.45;;;819.60;844.80;;;;;;5094483;28;20039;-66
2021/06/10 09:55:32;;;;;;;42.40;6.32;;;819.50;844.80;;;;;;5094636;28;20017;-66
2021/06/10 09:58:14;;;;;;;24.75;5.20;;;819.30;844.80;;;;;;5094644;28;20125;-66
2021/06/10 10:00:49;;;;;;;14.55;3.95;;;819.20;844.80;;;;;;5094331;28;20477;-65
2021/06/10 10:03:24;;;;;;;9.98;4.03;;;794.30;870.40;;;;;;5094538;28;20103;-66
2021/06/10 10:05:51;;;;;;;12.15;3.55;;;794.20;844.80;;;;;;5094427;28;20377;-65
2021/06/10 10:08:17;;;;;;;25.60;5.07;;;794.10;844.80;;;;;;5094432;28;20028;-64
2021/06/10 10:10:43;;;;;;;7.78;3.55;;;794.00;870.40;;;;;;5094286;28;20028;-66
2021/06/10 10:13:13;;;;;;;12.18;2.97;;;793.90;870.40;;;;;;5094360;28;20027;-66
2021/06/10 10:15:39;;;;;;;15.15;3.47;;;793.70;844.80;;;;;;5094297;28;20028;-66
2021/06/10 10:18:08;;;;;;;12.93;3.28;;;793.60;844.80;;;;;;5094293;28;20027;-66
2021/06/10 10:20:35;;;;;;;12.63;3.70;;;768.90;819.20;;;;;;5094116;28;20823;-67
2021/06/10 10:23:01;;;;;;;9.45;3.10;;;768.70;819.20;;;;;;5093299;28;20020;-66
2021/06/10 10:25:27;;;;;;;10.25;3.40;;;768.70;819.20;;;;;;5093767;28;20377;-66
2021/06/10 10:27:52;;;;;;;4.95;3.00;;;768.70;819.20;;;;;;5093468;28;20470;-66
2021/06/10 10:30:23;;;;;;;6.97;2.92;;;768.50;819.20;;;;;;5093295;28;20016;-66
2021/06/10 10:32:48;;;;;;;5.40;3.20;;;768.50;819.20;;;;;;5093708;28;20031;-66
2021/06/10 10:35:23;;;;;;;8.18;2.67;;;768.50;819.20;;;;;;5093598;28;20020;-65
2021/06/10 10:37:50;;;;;;;16.65;3.17;;;768.50;819.20;;;;;;5091628;28;20015;-64
2021/06/10 10:40:29;;;;;;;14.45;3.20;;;768.40;793.60;;;;;;5092578;28;20032;-64
2021/06/10 10:43:08;;;;;;;2.95;2.45;;;768.30;793.60;;;;;;5093685;28;20016;-65
2021/06/10 10:45:34;;;;;;;4.65;2.60;;;768.20;793.60;;;;;;5093921;28;20024;-63
2021/06/10 10:48:10;;;;;;;9.45;2.80;;;768.20;793.60;;;;;;5093726;28;20466;-65
2021/06/10 10:50:36;;;;;;;7.22;2.45;;;768.20;793.60;;;;;;5093740;28;20538;-65
2021/06/10 10:53:03;;;;;;;6.70;2.63;;;768.00;793.60;;;;;;5093480;28;20020;-64
2021/06/10 10:55:32;;;;;;;5.85;2.40;;;768.00;819.20;;;;;;5093660;28;20024;-63
2021/06/10 10:58:06;;;;;;;6.45;2.95;;;743.30;819.20;;;;;;5093907;28;20103;-63
2021/06/10 11:01:07;;;;;;;7.95;3.40;;;743.20;819.20;;;;;;5093486;28;20064;-67
2021/06/10 11:03:42;;;;;;;5.75;2.90;;;743.10;819.20;;;;;;5093150;28;20389;-67
2021/06/10 11:06:28;;;;;;;5.40;2.90;;;743.00;819.20;;;;;;5092049;28;20024;-67
2021/06/10 11:09:12;;;;;;;4.60;3.30;;;742.90;844.80;;;;;;5099102;28;20386;-66
2021/06/10 11:12:05;;;;;;;9.82;3.58;;;742.90;844.80;;;;;;5087520;28;20117;-66
2021/06/10 11:14:35;;;;;;;10.23;3.00;;;742.70;844.80;;;;;;5011810;28;20069;-66
2021/06/10 11:17:29;;;;;;;21.95;3.58;;;742.60;844.80;;;;;;5011703;28;20038;-66
2021/06/10 11:20:05;;;;;;;23.90;4.85;;;742.60;844.80;;;;;;5011522;28;20049;-66
2021/06/10 11:22:50;;;;;;;27.77;4.60;;;742.50;870.40;;;;;;5011343;28;20022;-69
2021/06/10 11:25:30;;;;;;;58.30;6.88;;;742.40;870.40;;;;;;4994756;28;20041;-70
2021/06/10 11:28:16;;;;;;;21.80;4.70;;;742.40;896.00;;;;;;5011355;28;20432;-69
2021/06/10 11:30:43;;;;;;;16.15;3.53;;;742.40;896.00;;;;;;5011341;28;20061;-70
2021/06/10 11:33:12;;;;;;;4.85;3.10;;;717.70;896.00;;;;;;4995039;28;20575;-69
2021/06/10 11:35:42;;;;;;;9.38;3.38;;;742.40;921.60;;;;;;5011224;28;20124;-70
2021/06/10 11:38:19;;;;;;;8.48;3.22;;;742.40;921.60;;;;;;5011184;28;20038;-69
2021/06/10 11:41:00;;;;;;;4.38;2.95;;;742.40;921.60;;;;;;5011210;28;20054;-70
2021/06/10 11:43:28;;;;;;;4.97;2.78;;;742.50;921.60;;;;;;5011792;28;20365;-69
2021/06/10 11:46:05;;;;;;;6.50;3.60;;;742.70;921.60;;;;;;5011273;28;20038;-70
2021/06/10 11:48:40;;;;;;;11.05;3.75;;;742.90;921.60;;;;;;5011344;28;20034;-69
2021/06/10 11:51:20;;;;;;;9.20;3.53;;;743.00;896.00;;;;;;5041340;28;20032;-69
2021/06/10 11:53:45;;;;;;;6.60;3.00;;;743.10;870.40;;;;;;5097056;28;20028;-70
2021/06/10 11:56:11;;;;;;;3.00;2.70;;;743.30;844.80;;;;;;5096856;28;20028;-69
2021/06/10 11:58:37;;;;;;;4.28;2.65;;;768.10;819.20;;;;;;5096222;28;20024;-67
2021/06/10 12:01:14;;;;;;;4.22;3.10;;;768.40;819.20;;;;;;5095349;28;20028;-69
2021/06/10 12:03:41;;;;;;;8.15;2.70;;;768.50;819.20;;;;;;5092912;28;20024;-70
2021/06/10 12:06:11;;;;;;;6.97;2.72;;;768.60;793.60;;;;;;5095285;28;20028;-68
2021/06/10 12:08:38;;;;;;;4.90;3.10;;;768.80;793.60;;;;;;5095071;28;20031;-71
2021/06/10 12:11:05;;;;;;;6.45;2.90;;;793.60;844.80;;;;;;5095037;28;20024;-69
2021/06/10 12:13:33;;;;;;;3.80;3.25;;;793.80;844.80;;;;;;5095368;28;20034;-66
2021/06/10 12:16:01;;;;;;;5.13;3.15;;;794.00;844.80;;;;;;5092449;28;20020;-70
2021/06/10 12:18:29;;;;;;;3.80;2.72;;;794.10;844.80;;;;;;5095018;28;20032;-71
2021/06/10 12:21:00;;;;;;;6.15;2.97;;;794.30;793.60;;;;;;5094872;28;20016;-69
2021/06/10 12:23:58;;;;;;;9.32;2.83;;;819.20;768.00;;;;;;5094879;28;20044;-69
2021/06/10 12:26:27;;;;;;;7.30;2.75;;;819.40;768.00;;;;;;5094936;28;20047;-71